Neerpelt, Belgium
Current Conditions -  °F | °C
As of 1:25 PM on Sunday 21 Dec 2014 (Local Time) from EBBL Reporting Station
Broken Clouds Broken Clouds  
Wind Chill: 38°   Ceiling: 2500
Heat Index: 45°   Visibility: 6mi
Dew Point: 39°   Wind: 14mph
Humidity: 81%   Direction: 230°SW
Pressure: 30.33"   Gusts: NA
Location:  51.23°N, 5.44°E
Report Text: EBBL 211225Z 23012KT 9999 SCT015 BKN025 07/04 Q1027 WHT
Loading
Personal Weather Stations






























Interactive Weather Map New forecast layout! Learn more

10-Day Weather Forecast

Advertisements
Track Severe Weather on mobile